Hauptseite
METAR-TAF:

METAR-TAF

Flughäfen :

Flughafen Niamey

Niamey, Niger

Breite: 13-29N, Länge: 002-10E, Höhe: 223 m

Beobachtung

Neuester Wetterbericht von vor 50 Minuten, um 18:00 UTC
Wind 3 kt aus Südost
Temperatur 31°C
Luftfeuchtigkeit 14%
Luftdruck 1011 hPa
Sichtweite: 4800 m
verbreitet Staub

METAR: DRRN 161800Z 14003KT 4800 DU NSC 31/M00 Q1011 BECMG 6000

Zeit: 19:50 (18:50 UTC)

Prognose

Neuester Wetterbericht von vor 1 Stunde und 50 Minuten, um 17:00 UTC
Gültige Prognose vom 16 um 18 UTC bis 17 um 24 UTC
Wind 6 kt aus Ost
Sichtweite: 8000 m
Zeitweise
vom 16 um 18 UTC bis 17 um 21 UTC
Sichtweite: 4000 m
verbreitet Staub
Übergehend zu
vom 16 um 21 UTC bis 16 um 23 UTC
Sichtweite: 4500 m
verbreitet Staub
Zeitweise
vom 17 um 06 UTC bis 17 um 10 UTC
Sichtweite: 2500 m

TAF: DRRN 161700Z 1618/1724 10006KT 8000 NSC TEMPO 1618/1721 4000 DU BECMG 1621/1623 4500 DU TEMPO 1706/1710 2500

Wetterbeobachtungen und Prognosen von mehr als 4000 Flughäfen (METAR und TAF Bericht).

Die verfügbaren Stationen werden durch gelbe und rote Markierungen auf der Karte dargestellt.

Führen Sie die Maus auf sie, um den Namen der Station zu sehen.

Darauf klicken, um die Beobachtung von Wetterbeobachtungen und Prognosen zu sehen.

Um die Karte zu ändern : klicken Sie auf den grünen Tasten mit einem schwarzen Kreuz Zum Vergrößern, auf den grünen Button mit einem Gedankenstrich zu verkleinern, oder auf die grünen Pfeile für benachbarte Karten.


METAR-TAF: